sensor_id;sensor_type;location;lat;lon;timestamp;P1;durP1;ratioP1;P2;durP2;ratioP2
57029;SDS011;42920;45.306;20.448;2023-04-02T00:00:32;3.45;;;1.80;;
57029;SDS011;42920;45.306;20.448;2023-04-02T00:02:59;4.60;;;1.88;;
57029;SDS011;42920;45.306;20.448;2023-04-02T00:05:39;5.07;;;2.17;;
57029;SDS011;42920;45.306;20.448;2023-04-02T00:08:17;3.20;;;1.73;;
57029;SDS011;42920;45.306;20.448;2023-04-02T00:10:47;6.20;;;1.95;;
57029;SDS011;42920;45.306;20.448;2023-04-02T00:13:31;4.55;;;1.90;;
57029;SDS011;42920;45.306;20.448;2023-04-02T00:16:05;3.30;;;1.60;;
57029;SDS011;42920;45.306;20.448;2023-04-02T00:18:33;4.00;;;1.90;;
57029;SDS011;42920;45.306;20.448;2023-04-02T00:21:14;4.28;;;2.20;;
57029;SDS011;42920;45.306;20.448;2023-04-02T00:23:52;4.40;;;1.67;;
57029;SDS011;42920;45.306;20.448;2023-04-02T00:26:38;3.70;;;1.83;;
57029;SDS011;42920;45.306;20.448;2023-04-02T00:29:08;3.97;;;2.13;;
57029;SDS011;42920;45.306;20.448;2023-04-02T00:31:37;8.57;;;2.17;;
57029;SDS011;42920;45.306;20.448;2023-04-02T00:34:07;10.82;;;2.35;;
57029;SDS011;42920;45.306;20.448;2023-04-02T00:36:38;4.43;;;2.10;;
57029;SDS011;42920;45.306;20.448;2023-04-02T00:39:08;4.43;;;2.28;;
57029;SDS011;42920;45.306;20.448;2023-04-02T00:41:39;10.40;;;2.20;;
57029;SDS011;42920;45.306;20.448;2023-04-02T00:44:11;3.88;;;2.13;;
57029;SDS011;42920;45.306;20.448;2023-04-02T00:46:41;10.18;;;2.38;;
57029;SDS011;42920;45.306;20.448;2023-04-02T00:52:03;6.25;;;2.67;;
57029;SDS011;42920;45.306;20.448;2023-04-02T00:54:33;3.83;;;2.40;;
57029;SDS011;42920;45.306;20.448;2023-04-02T00:57:11;4.13;;;2.45;;
57029;SDS011;42920;45.306;20.448;2023-04-02T01:05:41;4.38;;;2.10;;
57029;SDS011;42920;45.306;20.448;2023-04-02T01:20:07;4.05;;;2.08;;
57029;SDS011;42920;45.306;20.448;2023-04-02T01:25:17;3.10;;;2.10;;
57029;SDS011;42920;45.306;20.448;2023-04-02T01:27:55;3.58;;;2.40;;
57029;SDS011;42920;45.306;20.448;2023-04-02T01:30:30;5.35;;;3.05;;
57029;SDS011;42920;45.306;20.448;2023-04-02T01:32:58;4.38;;;2.35;;
57029;SDS011;42920;45.306;20.448;2023-04-02T01:35:24;5.20;;;2.50;;
57029;SDS011;42920;45.306;20.448;2023-04-02T01:37:57;5.03;;;2.40;;
57029;SDS011;42920;45.306;20.448;2023-04-02T01:40:41;4.85;;;2.25;;
57029;SDS011;42920;45.306;20.448;2023-04-02T01:45:51;3.40;;;1.83;;
57029;SDS011;42920;45.306;20.448;2023-04-02T01:48:17;5.07;;;2.40;;
57029;SDS011;42920;45.306;20.448;2023-04-02T01:50:48;6.30;;;2.50;;
57029;SDS011;42920;45.306;20.448;2023-04-02T01:53:17;5.55;;;2.50;;
57029;SDS011;42920;45.306;20.448;2023-04-02T01:58:17;5.88;;;2.92;;
57029;SDS011;42920;45.306;20.448;2023-04-02T02:03:16;4.40;;;2.45;;
57029;SDS011;42920;45.306;20.448;2023-04-02T02:05:43;5.25;;;2.88;;
57029;SDS011;42920;45.306;20.448;2023-04-02T02:08:22;5.35;;;2.55;;
57029;SDS011;42920;45.306;20.448;2023-04-02T02:10:55;6.05;;;2.63;;
57029;SDS011;42920;45.306;20.448;2023-04-02T02:13:21;7.95;;;3.03;;
57029;SDS011;42920;45.306;20.448;2023-04-02T02:15:47;5.60;;;2.80;;
57029;SDS011;42920;45.306;20.448;2023-04-02T02:18:13;5.15;;;2.65;;
57029;SDS011;42920;45.306;20.448;2023-04-02T02:20:44;5.45;;;2.92;;
57029;SDS011;42920;45.306;20.448;2023-04-02T02:23:11;4.60;;;2.78;;
57029;SDS011;42920;45.306;20.448;2023-04-02T02:25:38;3.88;;;2.60;;
57029;SDS011;42920;45.306;20.448;2023-04-02T02:28:05;6.68;;;2.60;;
57029;SDS011;42920;45.306;20.448;2023-04-02T02:30:46;6.50;;;3.00;;
57029;SDS011;42920;45.306;20.448;2023-04-02T02:35:53;5.22;;;2.72;;
57029;SDS011;42920;45.306;20.448;2023-04-02T02:40:55;5.95;;;3.38;;
57029;SDS011;42920;45.306;20.448;2023-04-02T02:43:27;5.28;;;3.20;;
57029;SDS011;42920;45.306;20.448;2023-04-02T02:45:53;5.25;;;3.00;;
57029;SDS011;42920;45.306;20.448;2023-04-02T02:48:22;6.97;;;3.92;;
57029;SDS011;42920;45.306;20.448;2023-04-02T02:50:57;5.88;;;3.33;;
57029;SDS011;42920;45.306;20.448;2023-04-02T02:53:24;10.63;;;3.50;;
57029;SDS011;42920;45.306;20.448;2023-04-02T02:55:52;7.00;;;3.75;;
57029;SDS011;42920;45.306;20.448;2023-04-02T02:58:23;6.63;;;3.65;;
57029;SDS011;42920;45.306;20.448;2023-04-02T03:00:52;6.65;;;3.80;;
57029;SDS011;42920;45.306;20.448;2023-04-02T03:03:22;6.63;;;2.78;;
57029;SDS011;42920;45.306;20.448;2023-04-02T03:05:55;5.70;;;3.28;;
57029;SDS011;42920;45.306;20.448;2023-04-02T03:08:29;6.78;;;3.50;;
57029;SDS011;42920;45.306;20.448;2023-04-02T03:11:06;8.18;;;3.28;;
57029;SDS011;42920;45.306;20.448;2023-04-02T03:13:36;5.00;;;2.70;;
57029;SDS011;42920;45.306;20.448;2023-04-02T03:16:17;7.78;;;3.80;;
57029;SDS011;42920;45.306;20.448;2023-04-02T03:21:19;6.70;;;3.00;;
57029;SDS011;42920;45.306;20.448;2023-04-02T03:26:39;5.30;;;3.25;;
57029;SDS011;42920;45.306;20.448;2023-04-02T03:29:15;4.78;;;2.83;;
57029;SDS011;42920;45.306;20.448;2023-04-02T03:31:55;7.38;;;3.35;;
57029;SDS011;42920;45.306;20.448;2023-04-02T03:34:51;5.53;;;3.25;;
57029;SDS011;42920;45.306;20.448;2023-04-02T03:40:13;7.07;;;3.55;;
57029;SDS011;42920;45.306;20.448;2023-04-02T03:42:44;6.22;;;3.17;;
57029;SDS011;42920;45.306;20.448;2023-04-02T03:45:23;5.45;;;3.10;;
57029;SDS011;42920;45.306;20.448;2023-04-02T03:48:11;5.70;;;3.00;;
57029;SDS011;42920;45.306;20.448;2023-04-02T03:53:14;7.95;;;2.92;;
57029;SDS011;42920;45.306;20.448;2023-04-02T03:55:39;6.53;;;3.95;;
57029;SDS011;42920;45.306;20.448;2023-04-02T04:01:04;5.85;;;2.90;;
57029;SDS011;42920;45.306;20.448;2023-04-02T04:03:44;4.68;;;2.72;;
57029;SDS011;42920;45.306;20.448;2023-04-02T04:06:28;5.22;;;2.90;;
57029;SDS011;42920;45.306;20.448;2023-04-02T04:11:43;5.72;;;3.47;;
57029;SDS011;42920;45.306;20.448;2023-04-02T04:14:19;5.28;;;3.00;;
57029;SDS011;42920;45.306;20.448;2023-04-02T04:19:42;10.85;;;6.93;;
57029;SDS011;42920;45.306;20.448;2023-04-02T04:22:24;12.00;;;5.28;;
57029;SDS011;42920;45.306;20.448;2023-04-02T04:24:56;8.00;;;4.43;;
57029;SDS011;42920;45.306;20.448;2023-04-02T04:27:25;7.00;;;4.05;;
57029;SDS011;42920;45.306;20.448;2023-04-02T04:30:29;9.25;;;4.85;;
57029;SDS011;42920;45.306;20.448;2023-04-02T04:33:09;9.10;;;4.38;;
57029;SDS011;42920;45.306;20.448;2023-04-02T04:35:51;5.47;;;3.50;;
57029;SDS011;42920;45.306;20.448;2023-04-02T04:43:41;34.13;;;14.27;;
57029;SDS011;42920;45.306;20.448;2023-04-02T04:46:21;59.70;;;29.23;;
57029;SDS011;42920;45.306;20.448;2023-04-02T04:49:13;12.88;;;5.88;;
57029;SDS011;42920;45.306;20.448;2023-04-02T04:51:53;5.90;;;3.45;;
57029;SDS011;42920;45.306;20.448;2023-04-02T04:54:24;8.32;;;3.92;;
57029;SDS011;42920;45.306;20.448;2023-04-02T04:56:55;7.57;;;4.20;;
57029;SDS011;42920;45.306;20.448;2023-04-02T04:59:27;7.07;;;3.17;;
57029;SDS011;42920;45.306;20.448;2023-04-02T05:02:05;7.35;;;2.85;;
57029;SDS011;42920;45.306;20.448;2023-04-02T05:04:39;6.97;;;3.95;;
57029;SDS011;42920;45.306;20.448;2023-04-02T05:12:36;7.32;;;3.42;;
57029;SDS011;42920;45.306;20.448;2023-04-02T05:15:21;8.95;;;3.58;;
57029;SDS011;42920;45.306;20.448;2023-04-02T05:23:44;15.35;;;7.80;;
57029;SDS011;42920;45.306;20.448;2023-04-02T05:26:29;16.15;;;9.15;;
57029;SDS011;42920;45.306;20.448;2023-04-02T05:29:05;9.07;;;5.10;;
57029;SDS011;42920;45.306;20.448;2023-04-02T05:31:44;8.52;;;4.93;;
57029;SDS011;42920;45.306;20.448;2023-04-02T05:34:24;7.07;;;4.35;;
57029;SDS011;42920;45.306;20.448;2023-04-02T05:36:52;4.95;;;3.30;;
57029;SDS011;42920;45.306;20.448;2023-04-02T05:39:22;6.45;;;3.47;;
57029;SDS011;42920;45.306;20.448;2023-04-02T05:41:56;8.10;;;4.20;;
57029;SDS011;42920;45.306;20.448;2023-04-02T05:44:27;5.68;;;3.25;;
57029;SDS011;42920;45.306;20.448;2023-04-02T05:52:10;9.48;;;4.68;;
57029;SDS011;42920;45.306;20.448;2023-04-02T05:54:51;10.05;;;4.32;;
57029;SDS011;42920;45.306;20.448;2023-04-02T05:57:24;8.95;;;4.85;;
57029;SDS011;42920;45.306;20.448;2023-04-02T05:59:57;10.10;;;4.63;;
57029;SDS011;42920;45.306;20.448;2023-04-02T06:02:54;12.70;;;4.18;;
57029;SDS011;42920;45.306;20.448;2023-04-02T06:05:34;7.53;;;4.55;;
57029;SDS011;42920;45.306;20.448;2023-04-02T06:08:07;7.28;;;3.60;;
57029;SDS011;42920;45.306;20.448;2023-04-02T06:10:43;12.25;;;6.78;;
57029;SDS011;42920;45.306;20.448;2023-04-02T06:13:17;7.38;;;4.47;;
57029;SDS011;42920;45.306;20.448;2023-04-02T06:15:43;5.82;;;3.20;;
57029;SDS011;42920;45.306;20.448;2023-04-02T06:18:14;4.90;;;3.00;;
57029;SDS011;42920;45.306;20.448;2023-04-02T06:20:43;5.72;;;3.63;;
57029;SDS011;42920;45.306;20.448;2023-04-02T06:23:27;8.50;;;5.18;;
57029;SDS011;42920;45.306;20.448;2023-04-02T06:28:38;5.82;;;3.13;;
57029;SDS011;42920;45.306;20.448;2023-04-02T06:31:29;8.07;;;3.67;;
57029;SDS011;42920;45.306;20.448;2023-04-02T06:34:17;5.40;;;3.43;;
57029;SDS011;42920;45.306;20.448;2023-04-02T06:36:45;7.90;;;3.35;;
57029;SDS011;42920;45.306;20.448;2023-04-02T06:39:19;5.75;;;3.40;;
57029;SDS011;42920;45.306;20.448;2023-04-02T06:42:10;6.15;;;3.25;;
57029;SDS011;42920;45.306;20.448;2023-04-02T06:44:37;8.52;;;4.03;;
57029;SDS011;42920;45.306;20.448;2023-04-02T06:50:06;9.82;;;5.60;;
57029;SDS011;42920;45.306;20.448;2023-04-02T06:52:39;9.45;;;5.15;;
57029;SDS011;42920;45.306;20.448;2023-04-02T06:58:05;8.18;;;3.25;;
57029;SDS011;42920;45.306;20.448;2023-04-02T07:00:38;7.18;;;3.67;;
57029;SDS011;42920;45.306;20.448;2023-04-02T07:03:15;6.32;;;2.88;;
57029;SDS011;42920;45.306;20.448;2023-04-02T07:05:49;7.30;;;3.85;;
57029;SDS011;42920;45.306;20.448;2023-04-02T07:08:15;9.35;;;3.80;;
57029;SDS011;42920;45.306;20.448;2023-04-02T07:13:08;6.28;;;3.08;;
57029;SDS011;42920;45.306;20.448;2023-04-02T07:15:40;5.18;;;3.10;;
57029;SDS011;42920;45.306;20.448;2023-04-02T07:18:08;5.35;;;3.35;;
57029;SDS011;42920;45.306;20.448;2023-04-02T07:20:56;7.75;;;4.57;;
57029;SDS011;42920;45.306;20.448;2023-04-02T07:23:23;13.25;;;6.10;;
57029;SDS011;42920;45.306;20.448;2023-04-02T07:25:49;10.05;;;6.13;;
57029;SDS011;42920;45.306;20.448;2023-04-02T07:28:19;7.75;;;4.72;;
57029;SDS011;42920;45.306;20.448;2023-04-02T07:30:45;7.40;;;4.38;;
57029;SDS011;42920;45.306;20.448;2023-04-02T07:33:15;14.73;;;7.47;;
57029;SDS011;42920;45.306;20.448;2023-04-02T07:35:42;8.00;;;4.65;;
57029;SDS011;42920;45.306;20.448;2023-04-02T07:38:08;6.93;;;4.30;;
57029;SDS011;42920;45.306;20.448;2023-04-02T07:40:34;7.22;;;4.65;;
57029;SDS011;42920;45.306;20.448;2023-04-02T07:43:01;10.05;;;6.07;;
57029;SDS011;42920;45.306;20.448;2023-04-02T07:45:27;6.75;;;4.30;;
57029;SDS011;42920;45.306;20.448;2023-04-02T07:47:53;8.75;;;4.65;;
57029;SDS011;42920;45.306;20.448;2023-04-02T07:50:19;16.38;;;8.48;;
57029;SDS011;42920;45.306;20.448;2023-04-02T07:52:44;8.00;;;5.00;;
57029;SDS011;42920;45.306;20.448;2023-04-02T07:55:11;6.20;;;3.58;;
57029;SDS011;42920;45.306;20.448;2023-04-02T07:57:38;6.95;;;3.75;;
57029;SDS011;42920;45.306;20.448;2023-04-02T08:00:07;6.78;;;4.05;;
57029;SDS011;42920;45.306;20.448;2023-04-02T08:02:36;8.63;;;4.70;;
57029;SDS011;42920;45.306;20.448;2023-04-02T08:05:01;9.90;;;5.75;;
57029;SDS011;42920;45.306;20.448;2023-04-02T08:07:27;6.53;;;3.80;;
57029;SDS011;42920;45.306;20.448;2023-04-02T08:09:53;8.82;;;4.78;;
57029;SDS011;42920;45.306;20.448;2023-04-02T08:12:19;7.60;;;4.25;;
57029;SDS011;42920;45.306;20.448;2023-04-02T08:14:44;7.20;;;4.63;;
57029;SDS011;42920;45.306;20.448;2023-04-02T08:17:10;8.95;;;4.20;;
57029;SDS011;42920;45.306;20.448;2023-04-02T08:19:36;8.90;;;4.55;;
57029;SDS011;42920;45.306;20.448;2023-04-02T08:22:02;8.93;;;4.53;;
57029;SDS011;42920;45.306;20.448;2023-04-02T08:24:28;8.65;;;4.97;;
57029;SDS011;42920;45.306;20.448;2023-04-02T08:26:53;9.50;;;4.97;;
57029;SDS011;42920;45.306;20.448;2023-04-02T08:29:19;11.30;;;7.28;;
57029;SDS011;42920;45.306;20.448;2023-04-02T08:31:45;9.32;;;5.85;;
57029;SDS011;42920;45.306;20.448;2023-04-02T08:34:11;11.85;;;5.57;;
57029;SDS011;42920;45.306;20.448;2023-04-02T08:36:37;10.82;;;5.68;;
57029;SDS011;42920;45.306;20.448;2023-04-02T08:39:05;8.35;;;4.65;;
57029;SDS011;42920;45.306;20.448;2023-04-02T08:41:36;10.45;;;5.72;;
57029;SDS011;42920;45.306;20.448;2023-04-02T08:44:17;10.30;;;5.70;;
57029;SDS011;42920;45.306;20.448;2023-04-02T08:46:51;11.45;;;5.13;;
57029;SDS011;42920;45.306;20.448;2023-04-02T08:49:27;7.55;;;3.97;;
57029;SDS011;42920;45.306;20.448;2023-04-02T08:51:59;8.93;;;5.65;;
57029;SDS011;42920;45.306;20.448;2023-04-02T08:54:27;8.20;;;4.15;;
57029;SDS011;42920;45.306;20.448;2023-04-02T08:59:40;6.55;;;3.95;;
57029;SDS011;42920;45.306;20.448;2023-04-02T09:04:55;6.18;;;3.83;;
57029;SDS011;42920;45.306;20.448;2023-04-02T09:07:22;7.65;;;4.63;;
57029;SDS011;42920;45.306;20.448;2023-04-02T09:09:48;8.93;;;4.93;;
57029;SDS011;42920;45.306;20.448;2023-04-02T09:12:18;7.53;;;4.70;;
57029;SDS011;42920;45.306;20.448;2023-04-02T09:17:42;12.70;;;7.75;;
57029;SDS011;42920;45.306;20.448;2023-04-02T09:20:16;8.10;;;5.63;;
57029;SDS011;42920;45.306;20.448;2023-04-02T09:22:50;9.93;;;6.03;;
57029;SDS011;42920;45.306;20.448;2023-04-02T09:25:21;42.83;;;21.73;;
57029;SDS011;42920;45.306;20.448;2023-04-02T09:27:54;15.73;;;8.13;;
57029;SDS011;42920;45.306;20.448;2023-04-02T09:32:54;12.20;;;7.22;;
57029;SDS011;42920;45.306;20.448;2023-04-02T09:38:10;8.02;;;5.03;;
57029;SDS011;42920;45.306;20.448;2023-04-02T09:43:33;5.72;;;3.17;;
57029;SDS011;42920;45.306;20.448;2023-04-02T09:48:40;7.47;;;3.75;;
57029;SDS011;42920;45.306;20.448;2023-04-02T09:54:29;7.47;;;4.50;;
57029;SDS011;42920;45.306;20.448;2023-04-02T09:56:35;11.13;;;5.63;;
57029;SDS011;42920;45.306;20.448;2023-04-02T10:03:59;6.57;;;3.80;;
57029;SDS011;42920;45.306;20.448;2023-04-02T10:06:28;7.43;;;3.70;;
57029;SDS011;42920;45.306;20.448;2023-04-02T10:08:54;7.53;;;4.15;;
57029;SDS011;42920;45.306;20.448;2023-04-02T10:11:23;10.20;;;3.95;;
57029;SDS011;42920;45.306;20.448;2023-04-02T10:21:41;5.18;;;3.05;;
57029;SDS011;42920;45.306;20.448;2023-04-02T10:24:12;13.00;;;5.72;;
57029;SDS011;42920;45.306;20.448;2023-04-02T10:29:21;5.82;;;3.85;;
57029;SDS011;42920;45.306;20.448;2023-04-02T10:32:19;7.32;;;4.55;;
57029;SDS011;42920;45.306;20.448;2023-04-02T10:40:27;6.80;;;4.35;;
57029;SDS011;42920;45.306;20.448;2023-04-02T10:45:50;5.00;;;3.00;;
57029;SDS011;42920;45.306;20.448;2023-04-02T10:56:51;6.25;;;4.10;;
57029;SDS011;42920;45.306;20.448;2023-04-02T10:59:25;4.38;;;2.85;;
57029;SDS011;42920;45.306;20.448;2023-04-02T11:01:54;5.65;;;3.70;;
57029;SDS011;42920;45.306;20.448;2023-04-02T11:04:41;9.35;;;4.00;;
57029;SDS011;42920;45.306;20.448;2023-04-02T11:07:16;4.10;;;2.75;;
57029;SDS011;42920;45.306;20.448;2023-04-02T11:09:47;5.22;;;3.00;;
57029;SDS011;42920;45.306;20.448;2023-04-02T11:12:24;4.38;;;2.28;;
57029;SDS011;42920;45.306;20.448;2023-04-02T11:15:00;4.82;;;2.60;;
57029;SDS011;42920;45.306;20.448;2023-04-02T11:17:26;3.63;;;2.30;;
57029;SDS011;42920;45.306;20.448;2023-04-02T11:19:53;3.75;;;2.28;;
57029;SDS011;42920;45.306;20.448;2023-04-02T11:22:20;4.00;;;2.38;;
57029;SDS011;42920;45.306;20.448;2023-04-02T11:24:52;2.72;;;1.77;;
57029;SDS011;42920;45.306;20.448;2023-04-02T11:27:21;3.22;;;1.73;;
57029;SDS011;42920;45.306;20.448;2023-04-02T11:29:49;3.35;;;2.05;;
57029;SDS011;42920;45.306;20.448;2023-04-02T11:32:39;4.82;;;1.98;;
57029;SDS011;42920;45.306;20.448;2023-04-02T11:35:33;4.25;;;2.13;;
57029;SDS011;42920;45.306;20.448;2023-04-02T11:48:26;3.90;;;2.20;;
57029;SDS011;42920;45.306;20.448;2023-04-02T11:50:54;4.28;;;2.70;;
57029;SDS011;42920;45.306;20.448;2023-04-02T11:53:21;4.95;;;3.20;;
57029;SDS011;42920;45.306;20.448;2023-04-02T12:03:45;5.35;;;2.53;;
57029;SDS011;42920;45.306;20.448;2023-04-02T12:09:17;5.20;;;2.50;;
57029;SDS011;42920;45.306;20.448;2023-04-02T12:11:51;5.78;;;2.78;;
57029;SDS011;42920;45.306;20.448;2023-04-02T12:22:45;7.05;;;2.83;;
57029;SDS011;42920;45.306;20.448;2023-04-02T12:27:44;5.25;;;2.67;;
57029;SDS011;42920;45.306;20.448;2023-04-02T12:30:20;3.85;;;2.45;;
57029;SDS011;42920;45.306;20.448;2023-04-02T12:32:47;3.05;;;1.73;;
57029;SDS011;42920;45.306;20.448;2023-04-02T12:43:29;3.13;;;1.92;;
57029;SDS011;42920;45.306;20.448;2023-04-02T12:45:58;3.13;;;1.80;;
57029;SDS011;42920;45.306;20.448;2023-04-02T12:48:26;3.78;;;2.20;;
57029;SDS011;42920;45.306;20.448;2023-04-02T12:50:53;3.90;;;2.08;;
57029;SDS011;42920;45.306;20.448;2023-04-02T12:53:21;2.80;;;1.70;;
57029;SDS011;42920;45.306;20.448;2023-04-02T12:55:49;2.80;;;1.50;;
57029;SDS011;42920;45.306;20.448;2023-04-02T12:58:26;2.00;;;1.30;;
57029;SDS011;42920;45.306;20.448;2023-04-02T13:01:14;4.18;;;2.08;;
57029;SDS011;42920;45.306;20.448;2023-04-02T13:03:40;2.80;;;1.80;;
57029;SDS011;42920;45.306;20.448;2023-04-02T13:06:21;3.83;;;2.30;;
57029;SDS011;42920;45.306;20.448;2023-04-02T13:08:48;4.18;;;2.10;;
57029;SDS011;42920;45.306;20.448;2023-04-02T13:11:14;6.35;;;2.47;;
57029;SDS011;42920;45.306;20.448;2023-04-02T13:13:41;4.32;;;2.40;;
57029;SDS011;42920;45.306;20.448;2023-04-02T13:18:42;4.45;;;2.90;;
57029;SDS011;42920;45.306;20.448;2023-04-02T13:23:41;2.97;;;2.00;;
57029;SDS011;42920;45.306;20.448;2023-04-02T13:26:21;5.85;;;3.53;;
57029;SDS011;42920;45.306;20.448;2023-04-02T13:31:26;3.42;;;1.80;;
57029;SDS011;42920;45.306;20.448;2023-04-02T13:33:56;4.75;;;2.20;;
57029;SDS011;42920;45.306;20.448;2023-04-02T13:36:22;4.05;;;1.92;;
57029;SDS011;42920;45.306;20.448;2023-04-02T13:38:48;4.30;;;2.47;;
57029;SDS011;42920;45.306;20.448;2023-04-02T13:41:27;6.45;;;2.03;;
57029;SDS011;42920;45.306;20.448;2023-04-02T13:43:59;5.28;;;2.55;;
57029;SDS011;42920;45.306;20.448;2023-04-02T13:46:27;2.85;;;1.23;;
57029;SDS011;42920;45.306;20.448;2023-04-02T13:48:57;5.35;;;2.85;;
57029;SDS011;42920;45.306;20.448;2023-04-02T13:54:03;9.00;;;5.38;;
57029;SDS011;42920;45.306;20.448;2023-04-02T13:56:39;9.70;;;3.53;;
57029;SDS011;42920;45.306;20.448;2023-04-02T13:59:05;9.25;;;4.28;;
57029;SDS011;42920;45.306;20.448;2023-04-02T14:01:31;8.25;;;4.85;;
57029;SDS011;42920;45.306;20.448;2023-04-02T14:03:57;4.38;;;2.22;;
57029;SDS011;42920;45.306;20.448;2023-04-02T14:09:13;6.90;;;3.13;;
57029;SDS011;42920;45.306;20.448;2023-04-02T14:14:36;8.90;;;4.35;;
57029;SDS011;42920;45.306;20.448;2023-04-02T14:17:33;7.32;;;4.70;;
57029;SDS011;42920;45.306;20.448;2023-04-02T14:34:27;10.73;;;5.43;;
57029;SDS011;42920;45.306;20.448;2023-04-02T14:37:19;11.60;;;7.05;;
57029;SDS011;42920;45.306;20.448;2023-04-02T14:42:59;5.03;;;2.53;;
57029;SDS011;42920;45.306;20.448;2023-04-02T14:45:39;5.60;;;2.70;;
57029;SDS011;42920;45.306;20.448;2023-04-02T14:50:48;5.72;;;3.20;;
57029;SDS011;42920;45.306;20.448;2023-04-02T14:53:22;14.38;;;7.88;;
57029;SDS011;42920;45.306;20.448;2023-04-02T14:55:52;8.93;;;5.43;;
57029;SDS011;42920;45.306;20.448;2023-04-02T14:58:22;4.20;;;2.30;;
57029;SDS011;42920;45.306;20.448;2023-04-02T15:00:55;5.90;;;3.22;;
57029;SDS011;42920;45.306;20.448;2023-04-02T15:03:41;5.75;;;3.35;;
57029;SDS011;42920;45.306;20.448;2023-04-02T15:06:20;5.38;;;3.00;;
57029;SDS011;42920;45.306;20.448;2023-04-02T15:09:09;4.80;;;2.97;;
57029;SDS011;42920;45.306;20.448;2023-04-02T15:11:50;7.57;;;5.00;;
57029;SDS011;42920;45.306;20.448;2023-04-02T15:14:20;10.48;;;5.63;;
57029;SDS011;42920;45.306;20.448;2023-04-02T15:16:51;6.40;;;4.50;;
57029;SDS011;42920;45.306;20.448;2023-04-02T15:19:17;5.95;;;2.85;;
57029;SDS011;42920;45.306;20.448;2023-04-02T15:25:14;8.85;;;2.25;;
57029;SDS011;42920;45.306;20.448;2023-04-02T15:27:35;4.15;;;2.63;;
57029;SDS011;42920;45.306;20.448;2023-04-02T15:30:09;5.03;;;2.72;;
57029;SDS011;42920;45.306;20.448;2023-04-02T15:32:39;5.70;;;2.72;;
57029;SDS011;42920;45.306;20.448;2023-04-02T16:11:04;7.22;;;4.97;;
57029;SDS011;42920;45.306;20.448;2023-04-02T16:13:36;10.20;;;4.47;;
57029;SDS011;42920;45.306;20.448;2023-04-02T16:18:39;7.90;;;4.10;;
57029;SDS011;42920;45.306;20.448;2023-04-02T16:21:24;13.10;;;6.70;;
57029;SDS011;42920;45.306;20.448;2023-04-02T16:23:54;9.02;;;5.18;;
57029;SDS011;42920;45.306;20.448;2023-04-02T16:29:37;14.60;;;4.93;;
57029;SDS011;42920;45.306;20.448;2023-04-02T16:37:55;10.93;;;7.30;;
57029;SDS011;42920;45.306;20.448;2023-04-02T16:43:32;35.22;;;19.17;;
57029;SDS011;42920;45.306;20.448;2023-04-02T16:48:58;19.38;;;9.90;;
57029;SDS011;42920;45.306;20.448;2023-04-02T16:54:29;22.60;;;12.48;;
57029;SDS011;42920;45.306;20.448;2023-04-02T17:05:54;4.00;;;1.98;;
57029;SDS011;42920;45.306;20.448;2023-04-02T17:09:11;5.15;;;2.30;;
57029;SDS011;42920;45.306;20.448;2023-04-02T17:11:54;4.38;;;2.95;;
57029;SDS011;42920;45.306;20.448;2023-04-02T17:17:09;4.15;;;2.50;;
57029;SDS011;42920;45.306;20.448;2023-04-02T17:19:38;8.20;;;3.47;;
57029;SDS011;42920;45.306;20.448;2023-04-02T17:22:08;7.45;;;2.95;;
57029;SDS011;42920;45.306;20.448;2023-04-02T17:24:41;7.25;;;3.28;;
57029;SDS011;42920;45.306;20.448;2023-04-02T17:27:30;4.65;;;2.72;;
57029;SDS011;42920;45.306;20.448;2023-04-02T17:30:14;4.40;;;2.33;;
57029;SDS011;42920;45.306;20.448;2023-04-02T17:32:47;13.30;;;7.57;;
57029;SDS011;42920;45.306;20.448;2023-04-02T17:35:33;46.38;;;25.88;;
57029;SDS011;42920;45.306;20.448;2023-04-02T17:38:20;19.00;;;11.32;;
57029;SDS011;42920;45.306;20.448;2023-04-02T17:40:56;10.00;;;4.30;;
57029;SDS011;42920;45.306;20.448;2023-04-02T17:45:55;6.47;;;3.47;;
57029;SDS011;42920;45.306;20.448;2023-04-02T17:48:31;6.22;;;2.13;;
57029;SDS011;42920;45.306;20.448;2023-04-02T17:53:42;9.43;;;4.88;;
57029;SDS011;42920;45.306;20.448;2023-04-02T17:59:07;8.00;;;4.05;;
57029;SDS011;42920;45.306;20.448;2023-04-02T18:01:45;8.38;;;3.20;;
57029;SDS011;42920;45.306;20.448;2023-04-02T18:21:18;17.90;;;12.48;;
57029;SDS011;42920;45.306;20.448;2023-04-02T18:26:48;13.88;;;6.15;;
57029;SDS011;42920;45.306;20.448;2023-04-02T18:51:39;7.60;;;1.85;;
57029;SDS011;42920;45.306;20.448;2023-04-02T18:54:17;5.72;;;2.15;;
57029;SDS011;42920;45.306;20.448;2023-04-02T18:57:36;3.70;;;1.65;;
57029;SDS011;42920;45.306;20.448;2023-04-02T19:02:41;24.88;;;13.40;;
57029;SDS011;42920;45.306;20.448;2023-04-02T19:05:34;15.43;;;10.82;;
57029;SDS011;42920;45.306;20.448;2023-04-02T19:08:30;32.67;;;21.17;;
57029;SDS011;42920;45.306;20.448;2023-04-02T19:11:23;52.17;;;33.13;;
57029;SDS011;42920;45.306;20.448;2023-04-02T19:14:01;51.92;;;29.27;;
57029;SDS011;42920;45.306;20.448;2023-04-02T19:16:39;37.83;;;22.00;;
57029;SDS011;42920;45.306;20.448;2023-04-02T19:22:28;50.83;;;24.20;;
57029;SDS011;42920;45.306;20.448;2023-04-02T19:25:34;46.70;;;20.60;;
57029;SDS011;42920;45.306;20.448;2023-04-02T19:44:20;29.20;;;16.77;;
57029;SDS011;42920;45.306;20.448;2023-04-02T19:46:46;35.33;;;21.95;;
57029;SDS011;42920;45.306;20.448;2023-04-02T19:51:41;60.85;;;35.70;;
57029;SDS011;42920;45.306;20.448;2023-04-02T19:54:07;47.95;;;28.40;;
57029;SDS011;42920;45.306;20.448;2023-04-02T19:56:32;49.88;;;28.30;;
57029;SDS011;42920;45.306;20.448;2023-04-02T19:58:58;49.50;;;28.95;;
57029;SDS011;42920;45.306;20.448;2023-04-02T20:01:24;63.15;;;33.90;;
57029;SDS011;42920;45.306;20.448;2023-04-02T20:03:50;67.07;;;34.28;;
57029;SDS011;42920;45.306;20.448;2023-04-02T20:06:16;71.30;;;36.40;;
57029;SDS011;42920;45.306;20.448;2023-04-02T20:08:42;61.88;;;31.10;;
57029;SDS011;42920;45.306;20.448;2023-04-02T20:11:07;87.32;;;42.08;;
57029;SDS011;42920;45.306;20.448;2023-04-02T20:13:33;95.20;;;44.28;;
57029;SDS011;42920;45.306;20.448;2023-04-02T20:16:00;49.65;;;24.98;;
57029;SDS011;42920;45.306;20.448;2023-04-02T20:18:27;24.27;;;14.35;;
57029;SDS011;42920;45.306;20.448;2023-04-02T20:20:53;26.90;;;14.00;;
57029;SDS011;42920;45.306;20.448;2023-04-02T20:23:18;20.33;;;14.48;;
57029;SDS011;42920;45.306;20.448;2023-04-02T20:25:45;19.77;;;13.18;;
57029;SDS011;42920;45.306;20.448;2023-04-02T20:28:20;20.65;;;11.18;;
57029;SDS011;42920;45.306;20.448;2023-04-02T20:30:47;18.45;;;10.30;;
57029;SDS011;42920;45.306;20.448;2023-04-02T20:33:32;18.67;;;9.40;;
57029;SDS011;42920;45.306;20.448;2023-04-02T20:36:00;12.48;;;8.20;;
57029;SDS011;42920;45.306;20.448;2023-04-02T20:38:28;15.77;;;7.00;;
57029;SDS011;42920;45.306;20.448;2023-04-02T20:40:54;13.30;;;8.07;;
57029;SDS011;42920;45.306;20.448;2023-04-02T20:43:21;12.60;;;7.15;;
57029;SDS011;42920;45.306;20.448;2023-04-02T20:45:54;15.25;;;8.30;;
57029;SDS011;42920;45.306;20.448;2023-04-02T20:48:25;14.88;;;8.30;;
57029;SDS011;42920;45.306;20.448;2023-04-02T20:50:52;13.15;;;7.35;;
57029;SDS011;42920;45.306;20.448;2023-04-02T20:53:18;13.60;;;6.55;;
57029;SDS011;42920;45.306;20.448;2023-04-02T20:55:45;12.05;;;7.22;;
57029;SDS011;42920;45.306;20.448;2023-04-02T20:58:11;10.30;;;5.70;;
57029;SDS011;42920;45.306;20.448;2023-04-02T21:00:42;12.57;;;6.05;;
57029;SDS011;42920;45.306;20.448;2023-04-02T21:03:08;10.95;;;5.80;;
57029;SDS011;42920;45.306;20.448;2023-04-02T21:05:43;7.53;;;4.88;;
57029;SDS011;42920;45.306;20.448;2023-04-02T21:08:10;5.45;;;3.58;;